EGPH/EDI METAR and TAF weather

Enter ICAO airport designator
Station Type Date Time Source
EGPH METAR 2020/01/22 15:20 UTC NOAA

EGPH 221520Z 25009KT 9999 VCSH SCT010 BKN024 11/09 Q1035


Station Type Date Time Source
EGPH Decoded METAR 2020/01/22 15:20 UTC NOAA

Edinburgh Airport, United Kingdom (EGPH) 55-57N 003-21W 0M
Jan 22, 2020 - 10:20 AM EST / 2020.01.22 1520 UTC
Wind: from the WSW (250 degrees) at 10 MPH (9 KT):0
Visibility: greater than 7 mile(s):0
Sky conditions: mostly cloudy
Weather: showers in the vicinity
Temperature: 51 F (11 C)
Dew Point: 48 F (9 C)
Relative Humidity: 87%
Pressure (altimeter): 30.56 in. Hg (1035 hPa)
ob: EGPH 221520Z 25009KT 9999 VCSH SCT010 BKN024 11/09 Q1035
cycle: 15

Station Type Date Time Source
EGPH TAF 2020/01/22 12:09 UTC NOAA

TAF EGPH 221103Z 2212/2312 25009KT 9999 SCT010
TEMPO 2212/2312 BKN012 PROB30
TEMPO 2222/2305 6000 -RADZ PROB30
TEMPO 2301/2312 26015G25KT

Example: see airport list